sensor_id;sensor_type;location;lat;lon;timestamp;pressure;altitude;pressure_sealevel;temperature;humidity
34674;BME280;20879;55.668;37.858;2022-08-25T00:01:57;100899.88;;;19.56;60.57
34674;BME280;20879;55.668;37.858;2022-08-25T00:04:29;100902.47;;;19.58;59.97
34674;BME280;20879;55.668;37.858;2022-08-25T00:07:07;100905.06;;;19.58;60.06
34674;BME280;20879;55.668;37.858;2022-08-25T00:09:36;100894.31;;;19.40;59.85
34674;BME280;20879;55.668;37.858;2022-08-25T00:12:08;100905.50;;;19.45;60.33
34674;BME280;20879;55.668;37.858;2022-08-25T00:14:38;100910.06;;;19.40;60.70
34674;BME280;20879;55.668;37.858;2022-08-25T00:17:08;100905.78;;;19.37;60.89
34674;BME280;20879;55.668;37.858;2022-08-25T00:19:37;100913.59;;;19.39;60.79
34674;BME280;20879;55.668;37.858;2022-08-25T00:22:09;100915.31;;;19.40;60.31
34674;BME280;20879;55.668;37.858;2022-08-25T00:24:38;100913.59;;;19.39;60.85
34674;BME280;20879;55.668;37.858;2022-08-25T00:27:10;100911.66;;;19.44;60.46
34674;BME280;20879;55.668;37.858;2022-08-25T00:29:39;100908.25;;;19.42;60.85
34674;BME280;20879;55.668;37.858;2022-08-25T00:32:08;100905.78;;;19.37;61.27
34674;BME280;20879;55.668;37.858;2022-08-25T00:34:44;100906.63;;;19.38;61.37
34674;BME280;20879;55.668;37.858;2022-08-25T00:37:14;100905.78;;;19.37;61.67
34674;BME280;20879;55.668;37.858;2022-08-25T00:39:44;100888.44;;;19.32;61.91
34674;BME280;20879;55.668;37.858;2022-08-25T00:42:15;100906.31;;;19.47;61.57
34674;BME280;20879;55.668;37.858;2022-08-25T00:44:46;100900.19;;;19.47;61.18
34674;BME280;20879;55.668;37.858;2022-08-25T00:47:15;100919.63;;;19.41;60.92
34674;BME280;20879;55.668;37.858;2022-08-25T00:49:48;100901.38;;;19.38;61.01
34674;BME280;20879;55.668;37.858;2022-08-25T00:52:21;100907.03;;;19.26;61.40
34674;BME280;20879;55.668;37.858;2022-08-25T00:54:55;100905.25;;;19.26;61.23
34674;BME280;20879;55.668;37.858;2022-08-25T00:57:40;100898.59;;;19.16;61.87
34674;BME280;20879;55.668;37.858;2022-08-25T01:00:15;100903.72;;;19.19;61.87
34674;BME280;20879;55.668;37.858;2022-08-25T01:02:46;100891.06;;;19.05;61.92
34674;BME280;20879;55.668;37.858;2022-08-25T01:05:17;100902.97;;;19.15;61.92
34674;BME280;20879;55.668;37.858;2022-08-25T01:07:52;100899.44;;;19.16;61.53
34674;BME280;20879;55.668;37.858;2022-08-25T01:10:38;100902.06;;;19.16;62.03
34674;BME280;20879;55.668;37.858;2022-08-25T01:13:14;100904.09;;;19.08;62.47
34674;BME280;20879;55.668;37.858;2022-08-25T01:15:54;100897.88;;;19.11;62.17
34674;BME280;20879;55.668;37.858;2022-08-25T01:18:25;100897.09;;;19.07;62.40
34674;BME280;20879;55.668;37.858;2022-08-25T01:20:58;100894.84;;;18.96;62.68
34674;BME280;20879;55.668;37.858;2022-08-25T01:23:27;100895.00;;;18.90;62.54
34674;BME280;20879;55.668;37.858;2022-08-25T01:26:04;100898.72;;;18.81;63.40
34674;BME280;20879;55.668;37.858;2022-08-25T01:28:35;100878.22;;;18.66;63.41
34674;BME280;20879;55.668;37.858;2022-08-25T01:31:30;100900.69;;;18.75;63.26
34674;BME280;20879;55.668;37.858;2022-08-25T01:34:00;100894.75;;;18.68;63.21
34674;BME280;20879;55.668;37.858;2022-08-25T01:36:32;100899.16;;;18.67;63.22
34674;BME280;20879;55.668;37.858;2022-08-25T01:39:04;100900.00;;;18.68;63.63
34674;BME280;20879;55.668;37.858;2022-08-25T01:41:40;100882.69;;;18.62;62.97
34674;BME280;20879;55.668;37.858;2022-08-25T01:44:18;100897.25;;;18.73;62.76
34674;BME280;20879;55.668;37.858;2022-08-25T01:46:47;100896.34;;;18.74;62.72
34674;BME280;20879;55.668;37.858;2022-08-25T01:49:16;100898.97;;;18.74;62.95
34674;BME280;20879;55.668;37.858;2022-08-25T01:51:56;100901.44;;;18.78;62.90
34674;BME280;20879;55.668;37.858;2022-08-25T01:54:30;100895.50;;;18.73;62.88
34674;BME280;20879;55.668;37.858;2022-08-25T01:56:59;100901.66;;;18.72;62.98
34674;BME280;20879;55.668;37.858;2022-08-25T01:59:30;100893.06;;;18.67;62.99
34674;BME280;20879;55.668;37.858;2022-08-25T02:02:05;100899.22;;;18.66;63.09
34674;BME280;20879;55.668;37.858;2022-08-25T02:04:36;100903.56;;;18.67;63.52
34674;BME280;20879;55.668;37.858;2022-08-25T02:07:12;100896.59;;;18.66;63.60
34674;BME280;20879;55.668;37.858;2022-08-25T02:09:42;100893.22;;;18.61;63.37
34674;BME280;20879;55.668;37.858;2022-08-25T02:12:12;100903.91;;;18.55;63.68
34674;BME280;20879;55.668;37.858;2022-08-25T02:15:04;100909.16;;;18.55;63.79
34674;BME280;20879;55.668;37.858;2022-08-25T02:17:33;100907.19;;;18.63;62.95
34674;BME280;20879;55.668;37.858;2022-08-25T02:20:03;100907.63;;;18.47;63.75
34674;BME280;20879;55.668;37.858;2022-08-25T02:22:42;100900.59;;;18.49;63.89
34674;BME280;20879;55.668;37.858;2022-08-25T02:25:23;100905.69;;;18.54;63.43
34674;BME280;20879;55.668;37.858;2022-08-25T02:27:52;100897.31;;;18.41;64.26
34674;BME280;20879;55.668;37.858;2022-08-25T02:30:21;100909.53;;;18.42;64.32
34674;BME280;20879;55.668;37.858;2022-08-25T02:32:51;100907.03;;;18.38;64.84
34674;BME280;20879;55.668;37.858;2022-08-25T02:35:21;100922.88;;;18.33;64.99
34674;BME280;20879;55.668;37.858;2022-08-25T02:37:52;100905.44;;;18.32;65.55
34674;BME280;20879;55.668;37.858;2022-08-25T02:40:26;100903.69;;;18.32;65.20
34674;BME280;20879;55.668;37.858;2022-08-25T02:42:56;100903.72;;;18.31;65.57
34674;BME280;20879;55.668;37.858;2022-08-25T02:45:25;100904.53;;;18.33;65.52
34674;BME280;20879;55.668;37.858;2022-08-25T02:47:54;100909.72;;;18.36;65.58
34674;BME280;20879;55.668;37.858;2022-08-25T02:50:24;100890.53;;;18.34;65.58
34674;BME280;20879;55.668;37.858;2022-08-25T02:52:55;100899.03;;;18.42;65.77
34674;BME280;20879;55.668;37.858;2022-08-25T02:55:24;100897.13;;;18.47;66.01
34674;BME280;20879;55.668;37.858;2022-08-25T02:57:53;100909.28;;;18.50;65.97
34674;BME280;20879;55.668;37.858;2022-08-25T03:00:22;100894.31;;;18.55;65.26
34674;BME280;20879;55.668;37.858;2022-08-25T03:02:52;100901.06;;;18.62;65.29
34674;BME280;20879;55.668;37.858;2022-08-25T03:05:21;100899.91;;;18.71;64.82
34674;BME280;20879;55.668;37.858;2022-08-25T03:07:51;100901.44;;;18.78;64.49
34674;BME280;20879;55.668;37.858;2022-08-25T03:10:28;100897.56;;;18.92;64.18
34674;BME280;20879;55.668;37.858;2022-08-25T03:12:57;100903.94;;;19.13;62.95
34674;BME280;20879;55.668;37.858;2022-08-25T03:15:32;100893.44;;;19.13;63.56
34674;BME280;20879;55.668;37.858;2022-08-25T03:18:04;100874.22;;;19.12;62.69
34674;BME280;20879;55.668;37.858;2022-08-25T03:20:34;100893.69;;;19.32;62.52
34674;BME280;20879;55.668;37.858;2022-08-25T03:23:09;100885.72;;;19.35;62.39
34674;BME280;20879;55.668;37.858;2022-08-25T03:25:40;100876.72;;;19.42;62.39
34674;BME280;20879;55.668;37.858;2022-08-25T03:28:32;100898.88;;;19.60;62.43
34674;BME280;20879;55.668;37.858;2022-08-25T03:31:01;100894.38;;;19.64;62.38
34674;BME280;20879;55.668;37.858;2022-08-25T03:33:30;100890.69;;;19.69;62.47
34674;BME280;20879;55.668;37.858;2022-08-25T03:36:00;100891.38;;;19.74;62.32
34674;BME280;20879;55.668;37.858;2022-08-25T03:38:29;100879.09;;;19.75;62.31
34674;BME280;20879;55.668;37.858;2022-08-25T03:41:13;100886.69;;;19.84;62.17
34674;BME280;20879;55.668;37.858;2022-08-25T03:43:43;100881.22;;;19.90;61.83
34674;BME280;20879;55.668;37.858;2022-08-25T03:46:18;100880.81;;;20.01;60.93
34674;BME280;20879;55.668;37.858;2022-08-25T03:48:55;100856.50;;;19.96;61.10
34674;BME280;20879;55.668;37.858;2022-08-25T03:51:27;100866.44;;;20.12;60.77
34674;BME280;20879;55.668;37.858;2022-08-25T03:54:04;100864.41;;;20.20;60.19
34674;BME280;20879;55.668;37.858;2022-08-25T03:56:36;100871.66;;;20.37;59.73
34674;BME280;20879;55.668;37.858;2022-08-25T03:59:12;100870.94;;;20.55;59.56
34674;BME280;20879;55.668;37.858;2022-08-25T04:01:43;100880.19;;;20.66;59.26
34674;BME280;20879;55.668;37.858;2022-08-25T04:04:17;100866.78;;;20.73;58.88
34674;BME280;20879;55.668;37.858;2022-08-25T04:06:47;100871.63;;;20.84;58.13
34674;BME280;20879;55.668;37.858;2022-08-25T04:09:16;100878.38;;;20.91;58.30
34674;BME280;20879;55.668;37.858;2022-08-25T04:11:47;100874.06;;;21.11;57.69
34674;BME280;20879;55.668;37.858;2022-08-25T04:14:20;100864.44;;;21.32;56.80
34674;BME280;20879;55.668;37.858;2022-08-25T04:16:55;100863.72;;;21.70;56.40
34674;BME280;20879;55.668;37.858;2022-08-25T04:19:24;100867.28;;;21.89;55.78
34674;BME280;20879;55.668;37.858;2022-08-25T04:21:53;100859.63;;;22.04;55.13
34674;BME280;20879;55.668;37.858;2022-08-25T04:24:23;100863.06;;;22.25;54.57
34674;BME280;20879;55.668;37.858;2022-08-25T04:27:05;100860.09;;;22.32;54.18
34674;BME280;20879;55.668;37.858;2022-08-25T04:29:37;100854.66;;;22.36;53.77
34674;BME280;20879;55.668;37.858;2022-08-25T04:32:06;100850.13;;;22.39;54.15
34674;BME280;20879;55.668;37.858;2022-08-25T04:34:36;100849.00;;;22.45;53.50
34674;BME280;20879;55.668;37.858;2022-08-25T04:37:05;100855.47;;;22.57;53.23
34674;BME280;20879;55.668;37.858;2022-08-25T04:39:35;100851.75;;;22.61;52.85
34674;BME280;20879;55.668;37.858;2022-08-25T04:42:06;100840.97;;;22.65;52.70
34674;BME280;20879;55.668;37.858;2022-08-25T04:44:41;100845.03;;;22.73;52.14
34674;BME280;20879;55.668;37.858;2022-08-25T04:47:10;100849.09;;;22.80;52.01
34674;BME280;20879;55.668;37.858;2022-08-25T04:49:42;100849.63;;;22.86;51.52
34674;BME280;20879;55.668;37.858;2022-08-25T04:52:11;100838.06;;;22.89;51.54
34674;BME280;20879;55.668;37.858;2022-08-25T04:54:41;100839.19;;;23.02;51.90
34674;BME280;20879;55.668;37.858;2022-08-25T04:57:12;100842.25;;;23.12;51.32
34674;BME280;20879;55.668;37.858;2022-08-25T04:59:41;100839.16;;;23.21;51.09
34674;BME280;20879;55.668;37.858;2022-08-25T05:02:10;100839.56;;;23.31;50.71
34674;BME280;20879;55.668;37.858;2022-08-25T05:04:41;100835.34;;;23.45;49.83
34674;BME280;20879;55.668;37.858;2022-08-25T05:07:11;100843.59;;;23.56;48.85
34674;BME280;20879;55.668;37.858;2022-08-25T05:09:40;100828.25;;;23.63;48.40
34674;BME280;20879;55.668;37.858;2022-08-25T05:12:09;100831.19;;;23.74;47.62
34674;BME280;20879;55.668;37.858;2022-08-25T05:14:43;100833.13;;;23.88;46.27
34674;BME280;20879;55.668;37.858;2022-08-25T05:17:16;100826.66;;;23.94;45.95
34674;BME280;20879;55.668;37.858;2022-08-25T05:19:48;100828.81;;;24.03;45.96
34674;BME280;20879;55.668;37.858;2022-08-25T05:22:17;100815.44;;;24.06;45.91
34674;BME280;20879;55.668;37.858;2022-08-25T05:24:48;100827.22;;;24.16;45.51
34674;BME280;20879;55.668;37.858;2022-08-25T05:27:19;100833.44;;;24.31;45.34
34674;BME280;20879;55.668;37.858;2022-08-25T05:29:55;100828.59;;;24.39;45.00
34674;BME280;20879;55.668;37.858;2022-08-25T05:32:24;100830.16;;;24.59;45.74
34674;BME280;20879;55.668;37.858;2022-08-25T05:34:53;100815.28;;;24.57;44.66
34674;BME280;20879;55.668;37.858;2022-08-25T05:37:22;100824.75;;;24.61;44.62
34674;BME280;20879;55.668;37.858;2022-08-25T05:39:52;100822.63;;;24.68;44.12
34674;BME280;20879;55.668;37.858;2022-08-25T05:42:26;100826.38;;;24.80;43.36
34674;BME280;20879;55.668;37.858;2022-08-25T05:44:58;100818.06;;;24.86;43.20
34674;BME280;20879;55.668;37.858;2022-08-25T05:47:29;100820.22;;;24.95;43.54
34674;BME280;20879;55.668;37.858;2022-08-25T05:49:58;100809.44;;;24.98;43.05
34674;BME280;20879;55.668;37.858;2022-08-25T05:52:32;100812.97;;;25.13;43.38
34674;BME280;20879;55.668;37.858;2022-08-25T05:55:01;100815.16;;;25.21;42.59
34674;BME280;20879;55.668;37.858;2022-08-25T05:57:34;100818.22;;;25.29;43.16
34674;BME280;20879;55.668;37.858;2022-08-25T06:00:08;100815.03;;;25.38;42.18
34674;BME280;20879;55.668;37.858;2022-08-25T06:02:40;100811.91;;;25.46;42.46
34674;BME280;20879;55.668;37.858;2022-08-25T06:05:08;100800.84;;;25.39;42.45
34674;BME280;20879;55.668;37.858;2022-08-25T06:07:37;100816.69;;;25.55;42.85
34674;BME280;20879;55.668;37.858;2022-08-25T06:10:07;100797.53;;;25.50;42.07
34674;BME280;20879;55.668;37.858;2022-08-25T06:12:44;100821.91;;;25.71;41.19
34674;BME280;20879;55.668;37.858;2022-08-25T06:15:18;100820.41;;;25.81;40.43
34674;BME280;20879;55.668;37.858;2022-08-25T06:17:49;100828.63;;;25.91;40.93
34674;BME280;20879;55.668;37.858;2022-08-25T06:20:29;100829.19;;;25.96;41.38
34674;BME280;20879;55.668;37.858;2022-08-25T06:22:59;100816.69;;;25.98;41.91
34674;BME280;20879;55.668;37.858;2022-08-25T06:25:28;100812.09;;;26.02;41.18
34674;BME280;20879;55.668;37.858;2022-08-25T06:27:59;100815.75;;;26.14;39.47
34674;BME280;20879;55.668;37.858;2022-08-25T06:30:37;100817.91;;;26.22;39.14
34674;BME280;20879;55.668;37.858;2022-08-25T06:33:12;100808.25;;;26.21;38.86
34674;BME280;20879;55.668;37.858;2022-08-25T06:35:42;100819.50;;;26.39;38.16
34674;BME280;20879;55.668;37.858;2022-08-25T06:38:12;100823.38;;;26.47;38.28
34674;BME280;20879;55.668;37.858;2022-08-25T06:40:46;100800.81;;;26.40;37.65
34674;BME280;20879;55.668;37.858;2022-08-25T06:43:17;100809.38;;;26.58;38.19
34674;BME280;20879;55.668;37.858;2022-08-25T06:45:49;100809.84;;;26.65;39.01
34674;BME280;20879;55.668;37.858;2022-08-25T06:48:18;100745.09;;;26.26;37.78
34674;BME280;20879;55.668;37.858;2022-08-25T06:51:03;100814.59;;;26.74;37.85
34674;BME280;20879;55.668;37.858;2022-08-25T06:53:33;100807.25;;;26.78;36.85
34674;BME280;20879;55.668;37.858;2022-08-25T06:56:03;100805.25;;;26.81;36.11
34674;BME280;20879;55.668;37.858;2022-08-25T06:58:33;100803.13;;;26.86;35.74
34674;BME280;20879;55.668;37.858;2022-08-25T07:01:11;100808.69;;;26.96;35.69
34674;BME280;20879;55.668;37.858;2022-08-25T07:03:46;100801.34;;;27.00;35.56
34674;BME280;20879;55.668;37.858;2022-08-25T07:06:18;100798.09;;;27.09;35.45
34674;BME280;20879;55.668;37.858;2022-08-25T07:08:53;100802.34;;;27.12;35.38
34674;BME280;20879;55.668;37.858;2022-08-25T07:11:24;100792.47;;;27.14;35.97
34674;BME280;20879;55.668;37.858;2022-08-25T07:13:53;100807.16;;;27.19;35.40
34674;BME280;20879;55.668;37.858;2022-08-25T07:16:30;100790.44;;;27.17;34.69
34674;BME280;20879;55.668;37.858;2022-08-25T07:19:00;100797.59;;;27.30;35.02
34674;BME280;20879;55.668;37.858;2022-08-25T07:21:31;100766.72;;;27.14;35.41
34674;BME280;20879;55.668;37.858;2022-08-25T07:24:04;100801.56;;;27.37;35.51
34674;BME280;20879;55.668;37.858;2022-08-25T07:26:41;100792.41;;;27.41;35.29
34674;BME280;20879;55.668;37.858;2022-08-25T07:29:14;100796.88;;;27.41;35.69
34674;BME280;20879;55.668;37.858;2022-08-25T07:31:47;100787.63;;;27.46;35.80
34674;BME280;20879;55.668;37.858;2022-08-25T07:34:17;100784.22;;;27.44;35.23
34674;BME280;20879;55.668;37.858;2022-08-25T07:37:05;100780.19;;;27.51;35.17
34674;BME280;20879;55.668;37.858;2022-08-25T07:39:34;100784.31;;;27.55;34.92
34674;BME280;20879;55.668;37.858;2022-08-25T07:42:04;100789.22;;;27.62;34.98
34674;BME280;20879;55.668;37.858;2022-08-25T07:44:38;100780.03;;;27.66;34.83
34674;BME280;20879;55.668;37.858;2022-08-25T07:47:18;100783.97;;;27.73;34.24
34674;BME280;20879;55.668;37.858;2022-08-25T07:49:49;100771.66;;;27.72;34.22
34674;BME280;20879;55.668;37.858;2022-08-25T07:52:23;100776.75;;;27.88;33.61
34674;BME280;20879;55.668;37.858;2022-08-25T07:54:53;100780.75;;;27.94;33.74
34674;BME280;20879;55.668;37.858;2022-08-25T07:57:22;100754.81;;;27.84;33.52
34674;BME280;20879;55.668;37.858;2022-08-25T07:59:57;100771.28;;;28.02;33.38
34674;BME280;20879;55.668;37.858;2022-08-25T08:02:28;100768.22;;;28.09;33.08
34674;BME280;20879;55.668;37.858;2022-08-25T08:05:02;100775.72;;;28.28;34.07
34674;BME280;20879;55.668;37.858;2022-08-25T08:07:35;100759.19;;;28.22;33.18
34674;BME280;20879;55.668;37.858;2022-08-25T08:10:12;100759.97;;;28.24;32.70
34674;BME280;20879;55.668;37.858;2022-08-25T08:13:02;100757.91;;;28.28;32.70
34674;BME280;20879;55.668;37.858;2022-08-25T08:15:41;100760.97;;;28.35;32.08
34674;BME280;20879;55.668;37.858;2022-08-25T08:18:15;100748.38;;;28.37;32.58
34674;BME280;20879;55.668;37.858;2022-08-25T08:20:47;100753.25;;;28.43;32.51
34674;BME280;20879;55.668;37.858;2022-08-25T08:23:22;100747.69;;;28.46;31.75
34674;BME280;20879;55.668;37.858;2022-08-25T08:25:53;100747.63;;;28.59;32.33
34674;BME280;20879;55.668;37.858;2022-08-25T08:28:23;100740.72;;;28.56;31.47
34674;BME280;20879;55.668;37.858;2022-08-25T08:31:04;100732.84;;;28.55;30.85
34674;BME280;20879;55.668;37.858;2022-08-25T08:33:45;100745.41;;;28.66;31.04
34674;BME280;20879;55.668;37.858;2022-08-25T08:36:15;100736.19;;;28.70;30.86
34674;BME280;20879;55.668;37.858;2022-08-25T08:38:47;100709.72;;;28.55;30.72
34674;BME280;20879;55.668;37.858;2022-08-25T08:41:43;100737.31;;;28.79;30.46
34674;BME280;20879;55.668;37.858;2022-08-25T08:45:00;100728.25;;;28.81;30.37
34674;BME280;20879;55.668;37.858;2022-08-25T08:47:43;100728.75;;;28.86;29.78
34674;BME280;20879;55.668;37.858;2022-08-25T08:50:31;100730.00;;;28.93;30.14
34674;BME280;20879;55.668;37.858;2022-08-25T08:53:07;100718.22;;;28.96;29.78
34674;BME280;20879;55.668;37.858;2022-08-25T08:55:43;100712.91;;;29.07;29.72
34674;BME280;20879;55.668;37.858;2022-08-25T08:58:38;100725.94;;;29.23;29.71
34674;BME280;20879;55.668;37.858;2022-08-25T09:01:11;100716.50;;;29.31;29.60
34674;BME280;20879;55.668;37.858;2022-08-25T09:03:43;100719.63;;;29.47;29.29
34674;BME280;20879;55.668;37.858;2022-08-25T09:06:31;100722.19;;;29.60;29.04
34674;BME280;20879;55.668;37.858;2022-08-25T09:09:05;100703.63;;;29.58;28.67
34674;BME280;20879;55.668;37.858;2022-08-25T09:11:47;100698.41;;;29.68;27.86
34674;BME280;20879;55.668;37.858;2022-08-25T09:14:37;100681.53;;;29.79;28.16
34674;BME280;20879;55.668;37.858;2022-08-25T09:17:12;100702.13;;;30.00;27.40
34674;BME280;20879;55.668;37.858;2022-08-25T09:20:12;100705.84;;;30.20;27.39
34674;BME280;20879;55.668;37.858;2022-08-25T09:22:58;100705.56;;;30.34;26.47
34674;BME280;20879;55.668;37.858;2022-08-25T09:25:42;100706.84;;;30.51;26.48
34674;BME280;20879;55.668;37.858;2022-08-25T09:28:26;100671.13;;;30.52;26.11
34674;BME280;20879;55.668;37.858;2022-08-25T09:31:08;100695.84;;;30.65;26.13
34674;BME280;20879;55.668;37.858;2022-08-25T09:33:47;100694.09;;;30.55;25.70
34674;BME280;20879;55.668;37.858;2022-08-25T09:36:16;100690.50;;;30.44;25.20
34674;BME280;20879;55.668;37.858;2022-08-25T09:38:48;100691.81;;;30.39;24.52
34674;BME280;20879;55.668;37.858;2022-08-25T09:41:43;100693.47;;;30.40;25.67
34674;BME280;20879;55.668;37.858;2022-08-25T09:44:18;100678.09;;;30.32;24.35
34674;BME280;20879;55.668;37.858;2022-08-25T09:46:58;100684.88;;;30.47;24.63
34674;BME280;20879;55.668;37.858;2022-08-25T09:49:38;100691.81;;;30.50;24.39
34674;BME280;20879;55.668;37.858;2022-08-25T09:52:32;100677.00;;;30.46;25.01
34674;BME280;20879;55.668;37.858;2022-08-25T09:55:25;100684.88;;;30.47;25.37
34674;BME280;20879;55.668;37.858;2022-08-25T09:57:59;100677.25;;;30.43;25.06
34674;BME280;20879;55.668;37.858;2022-08-25T10:00:35;100667.28;;;30.45;25.61
34674;BME280;20879;55.668;37.858;2022-08-25T10:03:10;100665.69;;;30.42;25.69
34674;BME280;20879;55.668;37.858;2022-08-25T10:05:58;100671.16;;;30.41;25.52
34674;BME280;20879;55.668;37.858;2022-08-25T10:08:37;100669.69;;;30.48;25.03
34674;BME280;20879;55.668;37.858;2022-08-25T10:11:10;100661.41;;;30.51;25.53
34674;BME280;20879;55.668;37.858;2022-08-25T10:13:42;100654.84;;;30.55;25.51
34674;BME280;20879;55.668;37.858;2022-08-25T10:16:21;100671.06;;;30.63;25.47
34674;BME280;20879;55.668;37.858;2022-08-25T10:19:04;100661.69;;;30.69;25.86
34674;BME280;20879;55.668;37.858;2022-08-25T10:21:34;100662.00;;;30.76;25.83
34674;BME280;20879;55.668;37.858;2022-08-25T10:24:05;100665.97;;;30.81;25.79
34674;BME280;20879;55.668;37.858;2022-08-25T10:26:39;100658.69;;;31.05;26.21
34674;BME280;20879;55.668;37.858;2022-08-25T10:29:22;100644.38;;;30.94;25.70
34674;BME280;20879;55.668;37.858;2022-08-25T10:32:19;100637.41;;;31.03;25.58
34674;BME280;20879;55.668;37.858;2022-08-25T10:34:53;100644.75;;;31.11;25.72
34674;BME280;20879;55.668;37.858;2022-08-25T10:37:30;100646.97;;;31.06;25.47
34674;BME280;20879;55.668;37.858;2022-08-25T10:40:12;100650.69;;;30.93;26.01
34674;BME280;20879;55.668;37.858;2022-08-25T10:43:00;100647.13;;;30.83;26.10
34674;BME280;20879;55.668;37.858;2022-08-25T10:45:37;100651.78;;;30.81;26.04
34674;BME280;20879;55.668;37.858;2022-08-25T10:48:32;100625.25;;;30.68;25.82
34674;BME280;20879;55.668;37.858;2022-08-25T10:51:14;100639.44;;;30.68;25.68
34674;BME280;20879;55.668;37.858;2022-08-25T10:53:58;100635.88;;;30.58;25.80
34674;BME280;20879;55.668;37.858;2022-08-25T10:56:34;100641.25;;;30.47;26.12
34674;BME280;20879;55.668;37.858;2022-08-25T10:59:29;100630.22;;;30.52;26.24
34674;BME280;20879;55.668;37.858;2022-08-25T11:02:31;100617.22;;;30.47;26.31
34674;BME280;20879;55.668;37.858;2022-08-25T11:05:09;100589.38;;;30.28;25.85
34674;BME280;20879;55.668;37.858;2022-08-25T11:07:43;100621.03;;;30.44;26.10
34674;BME280;20879;55.668;37.858;2022-08-25T11:10:19;100625.84;;;30.39;26.43
34674;BME280;20879;55.668;37.858;2022-08-25T11:12:53;100615.31;;;30.38;26.67
34674;BME280;20879;55.668;37.858;2022-08-25T11:15:30;100605.31;;;30.40;26.19
34674;BME280;20879;55.668;37.858;2022-08-25T11:18:04;100608.09;;;30.49;25.85
34674;BME280;20879;55.668;37.858;2022-08-25T11:20:44;100608.34;;;30.67;26.25
34674;BME280;20879;55.668;37.858;2022-08-25T11:23:23;100585.69;;;30.62;26.63
34674;BME280;20879;55.668;37.858;2022-08-25T11:25:57;100609.50;;;30.75;26.17
34674;BME280;20879;55.668;37.858;2022-08-25T11:28:33;100587.41;;;30.73;25.87
34674;BME280;20879;55.668;37.858;2022-08-25T11:31:08;100584.28;;;30.67;26.50
34674;BME280;20879;55.668;37.858;2022-08-25T11:33:38;100595.03;;;30.77;25.99
34674;BME280;20879;55.668;37.858;2022-08-25T11:36:18;100589.41;;;30.80;25.68
34674;BME280;20879;55.668;37.858;2022-08-25T11:39:07;100589.47;;;30.90;25.69
34674;BME280;20879;55.668;37.858;2022-08-25T11:41:50;100592.09;;;31.01;25.15
34674;BME280;20879;55.668;37.858;2022-08-25T11:44:43;100585.38;;;31.07;25.11
34674;BME280;20879;55.668;37.858;2022-08-25T11:47:42;100581.13;;;31.14;25.32
34674;BME280;20879;55.668;37.858;2022-08-25T11:50:27;100573.69;;;31.18;25.27
34674;BME280;20879;55.668;37.858;2022-08-25T11:53:18;100572.03;;;31.27;25.10
34674;BME280;20879;55.668;37.858;2022-08-25T11:55:58;100562.88;;;31.19;24.91
34674;BME280;20879;55.668;37.858;2022-08-25T11:58:45;100565.97;;;31.25;25.19
34674;BME280;20879;55.668;37.858;2022-08-25T12:04:37;100551.63;;;31.26;25.79
34674;BME280;20879;55.668;37.858;2022-08-25T12:07:17;100561.78;;;31.42;25.72
34674;BME280;20879;55.668;37.858;2022-08-25T12:13:02;100550.63;;;31.27;25.43
34674;BME280;20879;55.668;37.858;2022-08-25T12:15:58;100564.31;;;31.43;25.29
34674;BME280;20879;55.668;37.858;2022-08-25T12:18:42;100535.59;;;31.45;25.10
34674;BME280;20879;55.668;37.858;2022-08-25T12:21:31;100548.47;;;31.71;25.22
34674;BME280;20879;55.668;37.858;2022-08-25T12:24:13;100541.13;;;31.83;25.18
34674;BME280;20879;55.668;37.858;2022-08-25T12:26:54;100550.59;;;31.97;24.85
34674;BME280;20879;55.668;37.858;2022-08-25T12:29:38;100537.16;;;32.06;25.15
34674;BME280;20879;55.668;37.858;2022-08-25T12:32:28;100540.84;;;32.25;24.79
34674;BME280;20879;55.668;37.858;2022-08-25T12:35:18;100505.19;;;32.15;24.61
34674;BME280;20879;55.668;37.858;2022-08-25T12:37:58;100521.53;;;32.21;24.11
34674;BME280;20879;55.668;37.858;2022-08-25T12:40:33;100521.50;;;32.31;23.88
34674;BME280;20879;55.668;37.858;2022-08-25T12:43:08;100535.72;;;32.41;24.00
34674;BME280;20879;55.668;37.858;2022-08-25T12:45:45;100523.72;;;32.36;24.10
34674;BME280;20879;55.668;37.858;2022-08-25T12:48:41;100508.84;;;32.23;24.49
34674;BME280;20879;55.668;37.858;2022-08-25T13:00:14;100514.94;;;31.57;25.21
34674;BME280;20879;55.668;37.858;2022-08-25T13:03:13;100509.84;;;31.54;25.46
34674;BME280;20879;55.668;37.858;2022-08-25T13:06:29;100511.78;;;31.52;25.43
34674;BME280;20879;55.668;37.858;2022-08-25T13:12:17;100514.16;;;31.26;25.00
34674;BME280;20879;55.668;37.858;2022-08-25T13:14:52;100514.16;;;31.16;25.04
34674;BME280;20879;55.668;37.858;2022-08-25T13:17:31;100491.84;;;30.96;25.27
34674;BME280;20879;55.668;37.858;2022-08-25T13:20:16;100494.50;;;30.96;25.61
34674;BME280;20879;55.668;37.858;2022-08-25T13:22:59;100499.28;;;30.92;25.82
34674;BME280;20879;55.668;37.858;2022-08-25T13:25:30;100492.91;;;30.83;25.59
34674;BME280;20879;55.668;37.858;2022-08-25T13:28:05;100498.56;;;30.90;25.49
34674;BME280;20879;55.668;37.858;2022-08-25T13:30:37;100481.56;;;30.91;25.55
34674;BME280;20879;55.668;37.858;2022-08-25T13:33:16;100492.94;;;30.93;25.49
34674;BME280;20879;55.668;37.858;2022-08-25T13:35:49;100464.66;;;30.91;25.72
34674;BME280;20879;55.668;37.858;2022-08-25T13:38:41;100485.91;;;30.92;25.21
34674;BME280;20879;55.668;37.858;2022-08-25T13:41:25;100490.97;;;30.85;25.31
34674;BME280;20879;55.668;37.858;2022-08-25T13:44:01;100477.56;;;30.76;24.99